Time;durP1;ratioP1;P1;durP2;ratioP2;P2;SDS_P1;SDS_P2;PMS_P1;PMS_P2;Temp;Humidity;BMP_temperature;BMP_pressure;BME280_temperature;BME280_humidity;BME280_pressure;Samples;Min_cycle;Max_cycle;Signal;HPM_P1;HPM_P2
2024/01/09 00:02:12;;;;;;;4.47;2.25;;;;;;;-0.08;43.48;103300.63;4900361;28;123426;-73
2024/01/09 00:04:39;;;;;;;5.05;2.20;;;;;;;-0.08;43.92;103311.03;4912076;28;115576;-73
2024/01/09 00:07:11;;;;;;;5.38;2.13;;;;;;;-0.10;43.70;103304.88;4912311;28;114699;-72
2024/01/09 00:09:39;;;;;;;7.30;2.20;;;;;;;-0.11;43.54;103305.72;4896565;28;124540;-73
2024/01/09 00:12:06;;;;;;;4.70;1.90;;;;;;;-0.14;43.80;103295.19;4898057;28;124142;-73
2024/01/09 00:14:34;;;;;;;3.00;1.80;;;;;;;-0.14;43.84;103300.41;4911611;28;113709;-73
2024/01/09 00:17:02;;;;;;;5.65;2.47;;;;;;;-0.17;43.99;103301.16;4893600;28;113296;-73
2024/01/09 00:19:29;;;;;;;4.75;2.13;;;;;;;-0.17;43.97;103295.06;4910998;28;124127;-73
2024/01/09 00:22:02;;;;;;;3.60;2.10;;;;;;;-0.20;43.86;103299.31;4900087;28;122805;-72
2024/01/09 00:24:29;;;;;;;4.95;2.13;;;;;;;-0.22;44.03;103293.16;4912412;28;113680;-72
2024/01/09 00:26:58;;;;;;;3.65;1.80;;;;;;;-0.23;43.79;103291.41;4903254;28;113011;-71
2024/01/09 00:29:25;;;;;;;4.18;2.20;;;;;;;-0.24;43.93;103299.16;4904252;28;124498;-72
2024/01/09 00:31:52;;;;;;;5.10;1.92;;;;;;;-0.26;43.57;103301.69;4906083;28;123810;-73
2024/01/09 00:34:19;;;;;;;4.65;2.17;;;;;;;-0.27;43.77;103294.69;4916446;28;114947;-72
2024/01/09 00:36:49;;;;;;;5.55;2.53;;;;;;;-0.27;43.94;103299.00;4907387;28;114943;-72
2024/01/09 00:39:16;;;;;;;4.97;2.40;;;;;;;-0.28;44.01;103298.13;4905943;28;123586;-72
2024/01/09 00:41:49;;;;;;;4.78;2.58;;;;;;;-0.29;44.25;103296.34;4907851;28;123702;-72
2024/01/09 00:44:16;;;;;;;5.20;2.15;;;;;;;-0.30;44.15;103299.78;4890883;28;112340;-72
2024/01/09 00:46:44;;;;;;;4.32;2.17;;;;;;;-0.33;44.14;103297.06;4898160;28;112861;-72
2024/01/09 00:49:11;;;;;;;5.70;2.60;;;;;;;-0.34;43.95;103308.31;4913894;28;124042;-72
2024/01/09 00:51:39;;;;;;;5.03;2.75;;;;;;;-0.35;43.74;103306.53;4900843;28;123342;-71
2024/01/09 00:54:07;;;;;;;4.13;2.20;;;;;;;-0.36;44.17;103304.75;4899338;28;114260;-71
2024/01/09 00:56:34;;;;;;;4.50;2.00;;;;;;;-0.36;43.65;103289.13;4915506;28;114489;-71
2024/01/09 00:59:02;;;;;;;4.68;2.40;;;;;;;-0.38;43.93;103301.19;4896570;28;124476;-71
2024/01/09 01:01:30;;;;;;;6.20;2.60;;;;;;;-0.38;43.99;103306.41;4919003;28;123778;-72
2024/01/09 01:03:57;;;;;;;5.15;2.17;;;;;;;-0.39;44.08;103294.22;4909310;28;114072;-71
2024/01/09 01:06:24;;;;;;;4.90;2.55;;;;;;;-0.40;43.97;103292.44;4899070;28;114072;-72
2024/01/09 01:08:53;;;;;;;6.65;2.50;;;;;;;-0.41;44.11;103295.88;4906293;28;124858;-72
2024/01/09 01:11:20;;;;;;;5.88;2.45;;;;;;;-0.43;43.79;103289.72;4908702;28;123959;-72
2024/01/09 01:13:48;;;;;;;4.65;2.25;;;;;;;-0.46;44.04;103293.06;4893239;28;113799;-72
2024/01/09 01:16:16;;;;;;;5.22;2.15;;;;;;;-0.47;43.72;103291.31;4901586;28;112875;-72
2024/01/09 01:18:43;;;;;;;2.90;1.55;;;;;;;-0.46;44.19;103297.41;4895017;28;123177;-72
2024/01/09 01:21:10;;;;;;;4.57;2.30;;;;;;;-0.49;44.35;103297.25;4905156;28;124173;-71
2024/01/09 01:23:37;;;;;;;4.82;2.40;;;;;;;-0.50;44.22;103290.31;4908654;28;114132;-71
2024/01/09 01:26:05;;;;;;;4.80;1.83;;;;;;;-0.52;44.07;103290.22;4896488;28;113374;-71
2024/01/09 01:28:33;;;;;;;4.00;1.65;;;;;;;-0.53;43.97;103287.56;4914375;28;124391;-71
2024/01/09 01:31:00;;;;;;;4.07;2.15;;;;;;;-0.55;44.34;103286.63;4909666;28;122418;-71
2024/01/09 01:33:28;;;;;;;5.22;2.20;;;;;;;-0.56;44.14;103297.88;4918163;28;114693;-71
2024/01/09 01:35:56;;;;;;;4.88;2.03;;;;;;;-0.57;44.25;103298.69;4897436;28;113259;-71
2024/01/09 01:38:25;;;;;;;5.78;2.45;;;;;;;-0.60;44.67;103295.13;4912701;28;124380;-71
2024/01/09 01:40:52;;;;;;;5.10;2.00;;;;;;;-0.62;44.30;103296.78;4915469;28;123786;-72
2024/01/09 01:43:19;;;;;;;4.03;2.10;;;;;;;-0.63;44.76;103299.31;4895614;28;115532;-72
2024/01/09 01:45:47;;;;;;;6.25;2.40;;;;;;;-0.66;44.47;103289.69;4912318;28;115020;-71
2024/01/09 01:48:14;;;;;;;4.32;2.13;;;;;;;-0.66;44.77;103293.97;4912724;28;124292;-71
2024/01/09 01:50:42;;;;;;;5.00;2.55;;;;;;;-0.68;45.14;103286.13;4897357;28;123849;-71
2024/01/09 01:53:12;;;;;;;4.75;2.40;;;;;;;-0.70;44.73;103290.34;4913983;28;113626;-71
2024/01/09 01:55:40;;;;;;;6.43;2.47;;;;;;;-0.71;44.85;103290.31;4898729;28;113049;-72
2024/01/09 01:58:09;;;;;;;3.67;2.03;;;;;;;-0.73;44.82;103282.44;4912828;28;124085;-71
2024/01/09 02:00:36;;;;;;;5.03;2.08;;;;;;;-0.74;44.76;103288.47;4892715;28;124213;-71
2024/01/09 02:03:05;;;;;;;4.57;1.98;;;;;;;-0.75;44.80;103286.69;4902739;28;113443;-71
2024/01/09 02:05:33;;;;;;;5.20;2.20;;;;;;;-0.76;45.00;103290.13;4898834;28;113322;-71
2024/01/09 02:08:01;;;;;;;5.60;2.17;;;;;;;-0.77;44.96;103285.75;4910636;28;123857;-71
2024/01/09 02:10:28;;;;;;;5.07;2.30;;;;;;;-0.79;44.87;103282.19;4900419;28;123563;-71
2024/01/09 02:12:55;;;;;;;4.55;2.03;;;;;;;-0.80;45.17;103277.81;4902292;28;114429;-71
2024/01/09 02:15:22;;;;;;;3.25;1.95;;;;;;;-0.82;45.05;103280.34;4914569;28;113586;-71
2024/01/09 02:17:50;;;;;;;4.13;1.83;;;;;;;-0.82;44.92;103282.94;4910938;28;123953;-71
2024/01/09 02:20:21;;;;;;;4.88;2.20;;;;;;;-0.82;45.08;103287.25;4901458;28;123368;-72
2024/01/09 02:22:49;;;;;;;5.07;2.30;;;;;;;-0.83;45.15;103281.19;4905668;28;114817;-71
2024/01/09 02:25:16;;;;;;;4.70;2.30;;;;;;;-0.84;45.13;103278.50;4898267;28;113166;-71
2024/01/09 02:27:56;;;;;;;4.03;2.13;;;;;;;-0.85;45.37;103284.53;4884084;28;123767;-71
2024/01/09 02:30:24;;;;;;;3.40;1.83;;;;;;;-0.85;45.29;103281.91;4913859;28;124392;-70
2024/01/09 02:32:53;;;;;;;4.93;2.22;;;;;;;-0.85;45.45;103287.13;4895938;28;114126;-70
2024/01/09 02:35:20;;;;;;;4.47;1.98;;;;;;;-0.86;45.35;103281.03;4908527;28;115564;-70
2024/01/09 02:37:48;;;;;;;4.88;2.17;;;;;;;-0.86;45.14;103281.03;4905312;28;124263;-70
2024/01/09 02:40:15;;;;;;;4.88;2.13;;;;;;;-0.86;45.23;103274.97;4879363;28;122919;-70
2024/01/09 02:42:43;;;;;;;4.43;2.30;;;;;;;-0.88;45.51;103266.22;4896955;28;114577;-70
2024/01/09 02:45:10;;;;;;;5.32;1.88;;;;;;;-0.88;45.31;103279.22;4885395;28;114079;-70
2024/01/09 02:47:39;;;;;;;4.53;2.15;;;;;;;-0.88;45.67;103276.63;4911729;28;124311;-70
2024/01/09 02:50:07;;;;;;;5.90;2.03;;;;;;;-0.90;45.19;103273.06;4911815;28;124226;-70
2024/01/09 02:52:34;;;;;;;4.95;2.03;;;;;;;-0.91;45.42;103273.88;4895234;28;114316;-70
2024/01/09 02:55:03;;;;;;;5.30;2.08;;;;;;;-0.91;45.23;103269.56;4912660;28;113797;-70
2024/01/09 02:57:30;;;;;;;6.03;2.45;;;;;;;-0.91;45.46;103276.47;4909898;28;124097;-69
2024/01/09 02:59:57;;;;;;;6.72;2.38;;;;;;;-0.91;45.62;103279.06;4895029;28;123908;-69
2024/01/09 03:02:24;;;;;;;4.68;1.95;;;;;;;-0.91;45.50;103271.28;4919441;28;114585;-69
2024/01/09 03:04:52;;;;;;;5.35;2.03;;;;;;;-0.92;45.32;103269.47;4907730;28;114274;-69
2024/01/09 03:07:19;;;;;;;4.30;2.20;;;;;;;-0.92;45.74;103269.47;4910210;28;124358;-69
2024/01/09 03:09:46;;;;;;;5.32;2.33;;;;;;;-0.94;45.45;103265.94;4908987;28;124187;-68
2024/01/09 03:12:14;;;;;;;4.38;1.85;;;;;;;-0.95;45.48;103269.38;4898493;28;113661;-69
2024/01/09 03:14:41;;;;;;;5.55;2.47;;;;;;;-0.95;45.82;103269.38;4916954;28;113935;-72
2024/01/09 03:17:09;;;;;;;4.68;2.10;;;;;;;-0.96;45.62;103272.78;4897191;28;124395;-70
2024/01/09 03:19:36;;;;;;;6.07;2.03;;;;;;;-0.97;45.46;103271.91;4910974;28;123987;-70
2024/01/09 03:22:03;;;;;;;5.35;2.22;;;;;;;-0.99;45.50;103274.44;4910827;28;115389;-70
2024/01/09 03:24:31;;;;;;;5.00;2.38;;;;;;;-1.00;45.92;103262.28;4901618;28;114621;-69
2024/01/09 03:26:58;;;;;;;6.68;3.00;;;;;;;-1.01;45.86;103281.28;4903624;28;124557;-69
2024/01/09 03:29:25;;;;;;;5.20;2.33;;;;;;;-1.02;45.70;103276.94;4909043;28;124873;-70
2024/01/09 03:31:53;;;;;;;6.30;2.05;;;;;;;-1.04;45.82;103275.94;4914228;28;114512;-69
2024/01/09 03:34:21;;;;;;;4.43;1.90;;;;;;;-1.05;45.71;103274.19;4923889;28;114260;-69
2024/01/09 03:36:48;;;;;;;5.57;2.28;;;;;;;-1.05;45.89;103273.31;4900585;28;124129;-69
2024/01/09 03:39:15;;;;;;;5.65;1.92;;;;;;;-1.07;45.73;103275.84;4911588;28;122780;-69
2024/01/09 03:41:43;;;;;;;4.15;2.20;;;;;;;-1.07;45.89;103273.22;4888986;28;113887;-68
2024/01/09 03:44:12;;;;;;;5.07;2.00;;;;;;;-1.08;45.74;103274.03;4910366;28;113000;-68
2024/01/09 03:46:40;;;;;;;4.43;2.30;;;;;;;-1.10;45.98;103280.91;4909301;28;124138;-68
2024/01/09 03:49:07;;;;;;;6.07;2.45;;;;;;;-1.10;45.88;103274.81;4914576;28;124531;-69
2024/01/09 03:51:34;;;;;;;4.20;2.00;;;;;;;-1.11;46.08;103273.94;4899914;28;113072;-68
2024/01/09 03:54:02;;;;;;;4.50;2.60;;;;;;;-1.10;46.19;103275.69;4925277;28;114658;-68
2024/01/09 03:56:29;;;;;;;5.25;2.05;;;;;;;-1.12;45.78;103272.16;4912086;28;123652;-68
2024/01/09 03:59:01;;;;;;;5.45;2.33;;;;;;;-1.14;45.81;103271.19;4902959;28;122664;-69
2024/01/09 04:01:28;;;;;;;5.32;2.50;;;;;;;-1.14;45.80;103268.59;4909971;28;114175;-69
2024/01/09 04:03:56;;;;;;;4.75;2.03;;;;;;;-1.16;45.99;103270.25;4904553;28;114468;-69
2024/01/09 04:06:24;;;;;;;5.25;2.40;;;;;;;-1.17;46.02;103273.66;4910197;28;124114;-68
2024/01/09 04:08:51;;;;;;;5.88;2.40;;;;;;;-1.18;46.14;103267.56;4915190;28;125213;-69
2024/01/09 04:11:18;;;;;;;4.10;1.90;;;;;;;-1.18;46.22;103271.91;4912086;28;115208;-69
2024/01/09 04:13:46;;;;;;;6.82;2.45;;;;;;;-1.18;46.38;103271.91;4916151;28;115102;-69
2024/01/09 04:16:13;;;;;;;6.18;2.63;;;;;;;-1.19;45.98;103277.91;4912027;28;124431;-69
2024/01/09 04:18:40;;;;;;;4.80;2.05;;;;;;;-1.21;46.42;103271.75;4912500;28;124710;-69
2024/01/09 04:21:07;;;;;;;4.82;2.15;;;;;;;-1.23;45.99;103263.88;4918519;28;114402;-69
2024/01/09 04:23:35;;;;;;;6.35;2.22;;;;;;;-1.23;46.30;103263.88;4897215;28;112802;-69
2024/01/09 04:26:02;;;;;;;5.85;2.47;;;;;;;-1.24;46.40;103256.03;4924526;28;124898;-69
2024/01/09 04:28:30;;;;;;;5.03;2.50;;;;;;;-1.25;46.18;103259.44;4916313;28;124538;-69
2024/01/09 04:30:58;;;;;;;4.85;2.30;;;;;;;-1.26;46.44;103257.66;4903519;28;113264;-69
2024/01/09 04:33:25;;;;;;;4.00;2.03;;;;;;;-1.27;46.53;103255.91;4898889;28;113103;-69
2024/01/09 04:35:54;;;;;;;6.55;2.05;;;;;;;-1.27;46.77;103261.09;4898530;28;124247;-69
2024/01/09 04:38:21;;;;;;;4.43;2.20;;;;;;;-1.28;46.58;103248.91;4912791;28;124565;-69
2024/01/09 04:40:48;;;;;;;8.40;2.42;;;;;;;-1.28;46.40;103254.09;4896775;28;113877;-69
2024/01/09 04:43:16;;;;;;;4.32;2.20;;;;;;;-1.28;46.63;103246.31;4914124;28;114106;-71
2024/01/09 04:45:43;;;;;;;6.22;2.15;;;;;;;-1.29;46.21;103252.34;4917079;28;125073;-69
2024/01/09 04:48:13;;;;;;;4.80;2.20;;;;;;;-1.29;46.50;103252.34;4918836;28;124320;-69
2024/01/09 04:50:41;;;;;;;7.45;2.38;;;;;;;-1.30;46.38;103255.75;4895378;28;115045;-69
2024/01/09 04:53:08;;;;;;;5.45;2.70;;;;;;;-1.32;46.65;103247.88;4905252;28;114522;-69
2024/01/09 04:55:35;;;;;;;7.47;2.60;;;;;;;-1.32;46.33;103241.81;4931037;28;124124;-69
2024/01/09 04:58:04;;;;;;;5.65;2.60;;;;;;;-1.32;46.83;103252.19;4914472;28;124322;-69
2024/01/09 05:00:31;;;;;;;4.45;2.42;;;;;;;-1.33;46.60;103255.63;4902621;28;114270;-69
2024/01/09 05:02:58;;;;;;;5.75;2.20;;;;;;;-1.33;46.71;103253.03;4927100;28;115158;-68
2024/01/09 05:05:26;;;;;;;5.75;2.10;;;;;;;-1.34;46.73;103249.53;4912066;28;124376;-68
2024/01/09 05:07:53;;;;;;;4.50;2.55;;;;;;;-1.35;46.66;103249.50;4913981;28;122602;-68
2024/01/09 05:10:21;;;;;;;4.07;2.05;;;;;;;-1.37;46.65;103250.31;4921202;28;114361;-68
2024/01/09 05:12:48;;;;;;;9.38;2.58;;;;;;;-1.34;46.70;103253.84;4913119;28;114167;-69
2024/01/09 05:15:15;;;;;;;8.23;2.58;;;;;;;-1.37;46.33;103247.69;4896057;28;124473;-70
2024/01/09 05:17:43;;;;;;;4.35;2.28;;;;;;;-1.37;46.74;103255.50;4896996;28;122896;-68
2024/01/09 05:20:10;;;;;;;4.63;2.15;;;;;;;-1.38;46.91;103248.50;4909288;28;114825;-68
2024/01/09 05:22:37;;;;;;;4.85;2.50;;;;;;;-1.35;46.65;103257.28;4913050;28;114114;-68
2024/01/09 05:25:06;;;;;;;5.35;2.55;;;;;;;-1.37;46.78;103250.31;4905444;28;124119;-68
2024/01/09 05:27:34;;;;;;;8.05;2.90;;;;;;;-1.38;46.74;103251.09;4898515;28;124231;-68
2024/01/09 05:30:02;;;;;;;5.75;2.65;;;;;;;-1.38;46.55;103258.91;4894860;28;112650;-67
2024/01/09 05:32:30;;;;;;;8.02;2.30;;;;;;;-1.39;46.89;103261.47;4907205;28;114378;-68
2024/01/09 05:34:57;;;;;;;6.22;2.67;;;;;;;-1.42;46.82;103257.00;4920550;28;124389;-67
2024/01/09 05:37:24;;;;;;;6.93;2.70;;;;;;;-1.43;47.13;103260.44;4895102;28;123166;-67
2024/01/09 05:39:52;;;;;;;4.28;2.25;;;;;;;-1.45;46.87;103256.88;4896766;28;113586;-68
2024/01/09 05:42:19;;;;;;;6.28;2.47;;;;;;;-1.45;47.13;103262.09;4895535;28;113206;-67
2024/01/09 05:44:46;;;;;;;6.53;2.53;;;;;;;-1.47;47.01;103248.13;4919033;28;124116;-67
2024/01/09 05:47:14;;;;;;;4.28;2.25;;;;;;;-1.48;47.08;103251.53;4910538;28;124227;-67
2024/01/09 05:49:41;;;;;;;6.80;3.03;;;;;;;-1.48;47.25;103250.66;4879351;28;114559;-67
2024/01/09 05:52:08;;;;;;;7.88;3.05;;;;;;;-1.50;47.20;103253.19;4912466;28;114500;-67
2024/01/09 05:54:36;;;;;;;6.43;2.75;;;;;;;-1.50;47.09;103248.00;4913105;28;124366;-67
2024/01/09 05:57:04;;;;;;;5.22;2.60;;;;;;;-1.51;46.93;103251.41;4895626;28;123079;-67
2024/01/09 05:59:31;;;;;;;6.40;2.97;;;;;;;-1.51;46.95;103261.78;4886096;28;114334;-66
2024/01/09 06:02:02;;;;;;;6.40;3.00;;;;;;;-1.52;47.32;103270.44;4902820;28;112870;-67
2024/01/09 06:04:29;;;;;;;5.88;2.60;;;;;;;-1.53;47.52;103253.03;4908108;28;123212;-67
2024/01/09 06:06:56;;;;;;;5.35;2.38;;;;;;;-1.54;47.18;103264.28;4911143;28;123725;-67
2024/01/09 06:09:24;;;;;;;6.40;2.70;;;;;;;-1.55;47.31;103270.28;4906698;28;114232;-68
2024/01/09 06:11:51;;;;;;;6.78;2.63;;;;;;;-1.57;47.52;103252.03;4904294;28;114165;-67
2024/01/09 06:14:19;;;;;;;6.82;3.05;;;;;;;-1.58;47.15;103264.97;4898824;28;124152;-67
2024/01/09 06:16:47;;;;;;;6.47;2.85;;;;;;;-1.60;47.52;103266.56;4910572;28;124019;-67
2024/01/09 06:19:14;;;;;;;6.13;2.90;;;;;;;-1.61;47.52;103267.41;4924484;28;114561;-67
2024/01/09 06:21:41;;;;;;;6.18;2.72;;;;;;;-1.63;47.87;103271.66;4903654;28;113942;-67
2024/01/09 06:24:09;;;;;;;6.07;3.03;;;;;;;-1.64;47.64;103267.28;4913318;28;124466;-67
2024/01/09 06:26:36;;;;;;;5.80;2.70;;;;;;;-1.67;47.51;103270.63;4917957;28;124866;-67
2024/01/09 06:29:05;;;;;;;7.20;3.00;;;;;;;-1.66;47.48;103276.72;4919028;28;114387;-67
2024/01/09 06:31:33;;;;;;;7.43;3.00;;;;;;;-1.66;47.50;103274.09;4915413;28;113831;-68
2024/01/09 06:34:00;;;;;;;6.20;2.92;;;;;;;-1.66;47.43;103266.31;4884527;28;124240;-67
2024/01/09 06:36:28;;;;;;;7.03;3.05;;;;;;;-1.67;47.61;103274.94;4896133;28;124060;-67
2024/01/09 06:38:58;;;;;;;7.82;3.30;;;;;;;-1.66;47.81;103281.91;4909418;28;116037;-67
2024/01/09 06:41:26;;;;;;;7.55;3.53;;;;;;;-1.67;47.61;103269.75;4910619;28;115655;-67
2024/01/09 06:43:53;;;;;;;5.75;3.03;;;;;;;-1.67;47.79;103272.34;4910625;28;125439;-67
2024/01/09 06:46:20;;;;;;;5.40;2.97;;;;;;;-1.67;47.80;103280.16;4892296;28;124209;-67
2024/01/09 06:48:48;;;;;;;7.63;3.15;;;;;;;-1.67;47.91;103280.16;4908850;28;114561;-66
2024/01/09 06:51:15;;;;;;;5.75;2.88;;;;;;;-1.67;47.76;103281.03;4907534;28;114032;-66
2024/01/09 06:53:43;;;;;;;8.40;3.05;;;;;;;-1.68;47.80;103284.44;4908800;28;124376;-66
2024/01/09 06:56:10;;;;;;;7.25;3.10;;;;;;;-1.67;47.57;103285.34;4901478;28;124265;-66
2024/01/09 06:58:37;;;;;;;5.97;2.70;;;;;;;-1.67;47.48;103290.53;4902155;28;114250;-66
2024/01/09 07:01:06;;;;;;;7.00;2.92;;;;;;;-1.67;47.70;103290.53;4910682;28;114044;-67
2024/01/09 07:03:36;;;;;;;6.25;3.33;;;;;;;-1.67;47.83;103295.72;4907622;28;123925;-66
2024/01/09 07:06:04;;;;;;;6.45;2.78;;;;;;;-1.66;47.92;103302.69;4908608;28;124387;-66
2024/01/09 07:08:32;;;;;;;6.10;2.72;;;;;;;-1.66;47.65;103305.28;4907030;28;113545;-66
2024/01/09 07:10:59;;;;;;;8.90;2.63;;;;;;;-1.66;47.90;103297.50;4902677;28;113065;-66
2024/01/09 07:13:27;;;;;;;6.88;2.97;;;;;;;-1.67;47.82;103294.00;4876218;28;124972;-66
2024/01/09 07:15:57;;;;;;;6.82;2.88;;;;;;;-1.64;47.41;103295.84;4920185;28;123912;-66
2024/01/09 07:18:27;;;;;;;7.85;3.67;;;;;;;-1.65;47.87;103304.47;4898537;28;114542;-66
2024/01/09 07:20:54;;;;;;;7.97;3.92;;;;;;;-1.67;47.75;103311.31;4902376;28;114274;-66
2024/01/09 07:23:22;;;;;;;7.55;3.38;;;;;;;-1.69;47.45;103307.78;4901515;28;123906;-67
2024/01/09 07:25:50;;;;;;;8.85;3.45;;;;;;;-1.70;47.95;103311.16;4908645;28;123989;-65
2024/01/09 07:28:17;;;;;;;7.78;3.67;;;;;;;-1.72;47.89;103307.63;4908158;28;115418;-64
2024/01/09 07:30:44;;;;;;;8.18;3.83;;;;;;;-1.76;47.95;103315.25;4884856;28;114895;-65
2024/01/09 07:33:12;;;;;;;7.07;3.13;;;;;;;-1.79;47.55;103317.75;4887663;28;126076;-65
2024/01/09 07:35:39;;;;;;;7.57;3.70;;;;;;;-1.80;48.04;103321.13;4911672;28;124401;-65
2024/01/09 07:38:07;;;;;;;12.45;4.13;;;;;;;-1.82;47.96;103314.97;4910961;28;114020;-65
2024/01/09 07:40:34;;;;;;;10.57;4.63;;;;;;;-1.83;48.11;103321.03;4901664;28;114309;-65
2024/01/09 07:43:01;;;;;;;7.57;3.75;;;;;;;-1.84;47.90;103324.41;4897745;28;124899;-66
2024/01/09 07:45:31;;;;;;;9.10;3.30;;;;;;;-1.86;47.91;103328.66;4910317;28;123501;-66
2024/01/09 07:47:59;;;;;;;7.95;4.05;;;;;;;-1.87;48.16;103331.19;4914578;28;114112;-66
2024/01/09 07:50:28;;;;;;;7.40;3.53;;;;;;;-1.89;48.38;103336.28;4885546;28;113110;-65
2024/01/09 07:52:55;;;;;;;8.68;3.53;;;;;;;-1.89;47.73;103336.28;4913898;28;124361;-65
2024/01/09 07:55:25;;;;;;;8.02;3.85;;;;;;;-1.90;48.24;103334.53;4913186;28;124718;-65
2024/01/09 07:57:52;;;;;;;7.55;3.85;;;;;;;-1.89;48.35;103341.50;4915104;28;114327;-65
2024/01/09 08:00:19;;;;;;;7.72;3.38;;;;;;;-1.90;48.22;103329.34;4912901;28;114119;-65
2024/01/09 08:02:46;;;;;;;10.27;4.22;;;;;;;-1.92;48.34;103336.16;4913692;28;124134;-65
2024/01/09 08:05:14;;;;;;;7.93;4.05;;;;;;;-1.92;48.23;103336.16;4897073;28;124781;-65
2024/01/09 08:07:41;;;;;;;6.57;3.47;;;;;;;-1.94;48.33;103335.22;4914818;28;114363;-66
2024/01/09 08:10:09;;;;;;;7.15;3.28;;;;;;;-1.91;48.14;103342.25;4897247;28;112977;-65
2024/01/09 08:12:37;;;;;;;7.78;3.50;;;;;;;-1.90;48.29;103333.63;4913249;28;124109;-65
2024/01/09 08:15:04;;;;;;;8.25;4.07;;;;;;;-1.90;48.42;103324.16;4901518;28;123823;-65
2024/01/09 08:17:32;;;;;;;9.95;4.22;;;;;;;-1.90;48.08;103329.34;4924912;28;114877;-65
2024/01/09 08:19:59;;;;;;;9.00;3.97;;;;;;;-1.88;48.29;103337.22;4911413;28;117904;-65
2024/01/09 08:22:27;;;;;;;6.80;3.25;;;;;;;-1.89;48.22;103340.59;4909206;28;124544;-65
2024/01/09 08:24:54;;;;;;;10.18;4.30;;;;;;;-1.87;48.01;103338.97;4912789;28;124157;-64
2024/01/09 08:27:21;;;;;;;8.10;3.72;;;;;;;-1.86;47.98;103346.84;4902980;28;114510;-64
2024/01/09 08:29:48;;;;;;;7.53;3.58;;;;;;;-1.86;47.97;103341.63;4904069;28;114097;-73
2024/01/09 08:32:18;;;;;;;7.90;3.90;;;;;;;-1.85;48.08;103343.41;4902831;28;123693;-64
2024/01/09 08:34:45;;;;;;;9.70;3.65;;;;;;;-1.84;48.61;103340.00;4908319;28;124640;-64
2024/01/09 08:37:13;;;;;;;8.93;4.00;;;;;;;-1.81;48.13;103345.34;4912479;28;114337;-64
2024/01/09 08:39:40;;;;;;;9.13;3.97;;;;;;;-1.80;48.04;103341.91;4912904;28;114677;-64
2024/01/09 08:42:07;;;;;;;7.05;3.38;;;;;;;-1.79;48.26;103348.00;4912066;28;123786;-63
2024/01/09 08:44:35;;;;;;;8.38;3.50;;;;;;;-1.79;47.96;103343.72;4912091;28;123969;-64
2024/01/09 08:47:02;;;;;;;8.65;3.72;;;;;;;-1.79;47.76;103354.09;4907043;28;114642;-64
2024/01/09 08:49:29;;;;;;;8.90;3.95;;;;;;;-1.77;47.83;103352.47;4910935;28;113879;-63
2024/01/09 08:51:57;;;;;;;8.20;3.17;;;;;;;-1.74;47.90;103361.22;4914074;28;124443;-65
2024/01/09 08:54:24;;;;;;;9.40;4.28;;;;;;;-1.73;48.09;103361.28;4910461;28;123911;-63
2024/01/09 08:56:52;;;;;;;8.85;4.03;;;;;;;-1.71;47.70;103361.34;4913643;28;114637;-63
2024/01/09 08:59:19;;;;;;;8.73;3.38;;;;;;;-1.68;48.39;103362.38;4918876;28;114010;-64
2024/01/09 09:01:47;;;;;;;7.43;3.50;;;;;;;-1.64;48.19;103353.00;4896454;28;123806;-63
2024/01/09 09:04:14;;;;;;;7.90;3.90;;;;;;;-1.62;48.09;103361.75;4907340;28;124782;-64
2024/01/09 09:06:42;;;;;;;7.22;3.47;;;;;;;-1.59;47.96;103356.72;4910726;28;115275;-63
2024/01/09 09:09:09;;;;;;;7.38;3.38;;;;;;;-1.56;47.88;103356.88;4907414;28;114400;-64
2024/01/09 09:11:36;;;;;;;8.13;4.43;;;;;;;-1.52;48.07;103358.78;4906830;28;124337;-63
2024/01/09 09:14:04;;;;;;;9.43;3.90;;;;;;;-1.50;47.99;103372.72;4893349;28;122812;-63
2024/01/09 09:16:31;;;;;;;6.53;3.50;;;;;;;-1.47;47.63;103367.69;4909013;28;114953;-64
2024/01/09 09:18:59;;;;;;;7.47;3.88;;;;;;;-1.44;47.60;103378.19;4885223;28;113101;-64
2024/01/09 09:21:27;;;;;;;8.73;3.70;;;;;;;-1.42;47.71;103371.34;4893432;28;123428;-64
2024/01/09 09:23:54;;;;;;;7.25;3.47;;;;;;;-1.39;47.58;103371.50;4909828;28;122593;-63
2024/01/09 09:26:21;;;;;;;7.88;3.38;;;;;;;-1.35;47.26;103371.66;4921240;28;114632;-64
2024/01/09 09:28:50;;;;;;;8.75;3.97;;;;;;;-1.32;47.50;103382.19;4912779;28;112916;-64
2024/01/09 09:31:20;;;;;;;8.63;3.40;;;;;;;-1.28;47.38;103376.28;4909696;28;124311;-65
2024/01/09 09:33:49;;;;;;;11.13;3.90;;;;;;;-1.25;47.28;103373.84;4895422;28;124204;-76
2024/01/09 09:36:17;;;;;;;8.35;3.53;;;;;;;-1.20;47.01;103377.53;4892675;28;115092;-64
2024/01/09 09:38:44;;;;;;;8.85;4.00;;;;;;;-1.16;47.11;103376.84;4913953;28;113828;-65
2024/01/09 09:41:16;;;;;;;7.97;4.07;;;;;;;-1.12;47.07;103376.16;4878922;28;123235;-63
2024/01/09 09:43:50;;;;;;;9.82;3.83;;;;;;;-1.07;47.43;103373.78;4909485;28;123678;-63
2024/01/09 09:46:26;;;;;;;8.52;4.00;;;;;;;-1.04;47.12;103374.78;4915817;28;114806;-64
2024/01/09 09:48:55;;;;;;;6.68;2.97;;;;;;;-0.98;47.09;103372.47;4913829;28;114578;-64
2024/01/09 09:51:25;;;;;;;9.60;3.50;;;;;;;-0.93;46.98;103361.38;4910766;28;124112;-64
2024/01/09 09:53:54;;;;;;;6.75;2.95;;;;;;;-0.88;46.84;103367.66;4916499;28;123818;-64
2024/01/09 09:56:22;;;;;;;8.75;4.45;;;;;;;-0.84;46.71;103366.97;4911469;28;115095;-63
2024/01/09 09:58:50;;;;;;;7.90;3.88;;;;;;;-0.80;47.05;103363.66;4913519;28;114861;-63
2024/01/09 10:01:20;;;;;;;6.07;3.05;;;;;;;-0.74;46.83;103368.25;4900350;28;123256;-63
2024/01/09 10:04:02;;;;;;;8.90;4.07;;;;;;;-0.69;46.86;103367.63;4894244;28;123412;-64
2024/01/09 10:06:37;;;;;;;7.20;3.20;;;;;;;-0.65;46.66;103359.09;4915769;28;115436;-69
2024/01/09 10:09:06;;;;;;;7.88;3.58;;;;;;;-0.58;46.64;103355.06;4893103;28;112714;-64
2024/01/09 10:11:34;;;;;;;8.73;3.60;;;;;;;-0.52;46.36;103364.84;4895417;28;123907;-64
2024/01/09 10:14:01;;;;;;;8.65;4.32;;;;;;;-0.48;46.24;103357.19;4911858;28;123996;-64
2024/01/09 10:16:28;;;;;;;7.65;3.60;;;;;;;-0.42;46.36;103351.34;4903752;28;114453;-63
2024/01/09 10:18:56;;;;;;;7.68;3.53;;;;;;;-0.36;46.01;103346.41;4919847;28;113807;-63
2024/01/09 10:21:23;;;;;;;8.13;3.88;;;;;;;-0.31;46.14;103350.09;4909617;28;124576;-64
2024/01/09 10:23:54;;;;;;;10.15;4.03;;;;;;;-0.26;45.98;103348.56;4912506;28;123919;-65
2024/01/09 10:26:23;;;;;;;7.30;3.70;;;;;;;-0.18;45.89;103345.38;4894310;28;115306;-65
2024/01/09 10:28:51;;;;;;;9.13;4.07;;;;;;;-0.14;46.04;103336.84;4906576;28;112951;-65
2024/01/09 10:31:18;;;;;;;10.38;3.97;;;;;;;-0.07;45.83;103338.88;4908820;28;124940;-66
2024/01/09 10:33:45;;;;;;;8.25;3.80;;;;;;;-0.03;45.48;103325.13;4909378;28;123901;-65
2024/01/09 10:36:13;;;;;;;7.25;3.60;;;;;;;0.01;45.65;103331.38;4895458;28;113482;-66
2024/01/09 10:38:41;;;;;;;7.38;4.10;;;;;;;0.06;45.35;103335.94;4906859;28;114814;-65
2024/01/09 10:41:18;;;;;;;9.23;4.55;;;;;;;0.11;45.35;103323.06;4891787;28;123410;-65
2024/01/09 10:43:49;;;;;;;;;;;;;;;0.14;45.17;103324.06;4890158;28;124175;-66
2024/01/09 10:46:17;;;;;;;8.48;3.45;;;;;;;0.19;44.94;103317.31;4907806;28;114952;-66
2024/01/09 10:48:46;;;;;;;8.88;3.85;;;;;;;0.24;44.76;103321.81;4904115;28;113938;-66
2024/01/09 10:51:15;;;;;;;8.65;4.28;;;;;;;0.28;44.54;103318.47;4913985;28;124403;-67
2024/01/09 10:53:45;;;;;;;7.07;3.40;;;;;;;0.31;44.51;103323.81;4892491;28;123967;-67
2024/01/09 10:56:17;;;;;;;8.73;4.43;;;;;;;0.35;44.34;103312.69;4905421;28;114225;-67
2024/01/09 10:58:46;;;;;;;8.35;3.45;;;;;;;0.40;44.37;103305.91;4883418;28;112935;-68
2024/01/09 11:01:15;;;;;;;7.03;3.85;;;;;;;0.46;44.16;103303.53;4888757;28;123442;-67
2024/01/09 11:03:44;;;;;;;7.32;3.42;;;;;;;0.51;44.01;103303.69;4910859;28;124746;-68
2024/01/09 11:06:15;;;;;;;6.85;3.70;;;;;;;0.57;43.84;103302.19;4891149;28;112777;-68
2024/01/09 11:08:50;;;;;;;7.38;3.28;;;;;;;0.65;43.98;103293.78;4893028;28;113989;-68
2024/01/09 11:11:21;;;;;;;6.55;3.10;;;;;;;0.69;43.70;103290.44;4908541;28;123838;-68
2024/01/09 11:13:53;;;;;;;6.90;3.08;;;;;;;0.77;43.77;103288.97;4896817;28;124031;-69
2024/01/09 11:16:23;;;;;;;8.15;3.30;;;;;;;0.83;43.92;103281.38;4911010;28;114308;-69
2024/01/09 11:18:52;;;;;;;4.95;2.65;;;;;;;0.91;43.70;103284.25;4893550;28;114021;-69
2024/01/09 11:21:26;;;;;;;7.43;2.83;;;;;;;0.96;42.92;103288.78;4889232;28;124346;-70